createdAt,value
2022-09-07T00:02:49.156Z,2.10
2022-09-07T00:07:53.755Z,2.03
2022-09-07T00:12:56.987Z,2.00
2022-09-07T00:18:00.542Z,2.42
2022-09-07T00:23:05.186Z,2.22
2022-09-07T00:28:09.106Z,2.13
2022-09-07T00:33:12.613Z,1.77
2022-09-07T00:38:18.421Z,1.45
2022-09-07T00:43:31.272Z,2.10
2022-09-07T00:48:38.591Z,1.35
2022-09-07T00:53:46.896Z,1.58
2022-09-07T00:58:51.529Z,1.80
2022-09-07T01:03:57.223Z,2.22
2022-09-07T01:09:05.080Z,1.85
2022-09-07T01:14:11.582Z,1.98
2022-09-07T01:19:37.198Z,2.00
2022-09-07T01:24:57.227Z,1.50
2022-09-07T01:30:06.710Z,1.55
2022-09-07T01:35:18.545Z,1.52
2022-09-07T01:40:30.391Z,1.80
2022-09-07T01:45:39.639Z,1.60
2022-09-07T01:50:49.662Z,1.55
2022-09-07T01:55:58.546Z,1.40
2022-09-07T02:01:07.760Z,1.52
2022-09-07T02:06:16.553Z,1.58
2022-09-07T02:11:24.022Z,1.67
2022-09-07T02:16:31.122Z,1.75
2022-09-07T02:21:38.038Z,1.42
2022-09-07T02:26:43.051Z,1.65
2022-09-07T02:31:47.661Z,1.80
2022-09-07T02:36:52.721Z,1.90
2022-09-07T02:41:56.340Z,2.13
2022-09-07T02:47:19.175Z,2.03
2022-09-07T02:52:32.118Z,1.67
2022-09-07T02:57:47.769Z,1.80
2022-09-07T03:02:58.431Z,1.90
2022-09-07T03:08:06.208Z,2.55
2022-09-07T03:13:19.013Z,1.65
2022-09-07T03:18:24.313Z,1.42
2022-09-07T03:23:27.839Z,1.85
2022-09-07T03:28:31.327Z,1.92
2022-09-07T03:33:36.200Z,2.08
2022-09-07T03:38:39.467Z,2.00
2022-09-07T03:43:42.707Z,1.77
2022-09-07T03:48:48.787Z,2.45
2022-09-07T03:53:52.102Z,1.77
2022-09-07T03:58:55.769Z,1.80
2022-09-07T04:04:02.954Z,2.08
2022-09-07T04:09:08.178Z,1.95
2022-09-07T04:14:12.357Z,2.00
2022-09-07T04:19:17.066Z,2.17
2022-09-07T04:24:20.348Z,2.10
2022-09-07T04:29:24.020Z,1.95
2022-09-07T04:34:29.048Z,1.63
2022-09-07T04:39:32.401Z,1.98
2022-09-07T04:44:35.876Z,2.17
2022-09-07T04:49:41.069Z,1.98
2022-09-07T04:59:51.982Z,2.30
2022-09-07T05:05:02.002Z,1.90
2022-09-07T05:10:06.380Z,1.98
2022-09-07T05:15:10.299Z,2.55
2022-09-07T05:20:18.461Z,2.42
2022-09-07T05:25:23.402Z,2.90
2022-09-07T05:35:57.488Z,2.10
2022-09-07T05:41:00.649Z,3.03
2022-09-07T05:46:04.094Z,2.33
2022-09-07T05:51:09.601Z,2.28
2022-09-07T06:01:17.229Z,2.30
2022-09-07T06:06:21.901Z,2.58
2022-09-07T06:11:27.303Z,3.15
2022-09-07T06:16:33.844Z,2.83
2022-09-07T06:21:39.109Z,2.22
2022-09-07T06:37:10.734Z,2.65
2022-09-07T06:42:13.942Z,2.60
2022-09-07T06:47:20.241Z,2.63
2022-09-07T06:52:25.280Z,2.85
2022-09-07T06:57:28.747Z,2.90
2022-09-07T07:02:32.963Z,3.33
2022-09-07T07:07:38.056Z,3.53
2022-09-07T07:17:46.915Z,2.83
2022-09-07T07:22:54.122Z,2.55
2022-09-07T07:33:22.183Z,2.70
2022-09-07T07:43:57.018Z,3.05
2022-09-07T07:49:00.520Z,2.97
2022-09-07T07:54:05.018Z,3.55
2022-09-07T07:59:10.654Z,3.13
2022-09-07T08:04:15.972Z,3.17
2022-09-07T08:09:20.512Z,3.65
2022-09-07T08:14:24.038Z,4.28
2022-09-07T08:19:27.142Z,3.55
2022-09-07T08:24:32.429Z,3.25
2022-09-07T08:29:35.989Z,3.40
2022-09-07T08:34:39.215Z,3.70
2022-09-07T08:39:44.036Z,3.17
2022-09-07T08:44:51.656Z,3.30
2022-09-07T08:50:02.331Z,3.30
2022-09-07T08:55:14.706Z,3.42
2022-09-07T09:00:19.013Z,4.07
2022-09-07T09:05:31.912Z,4.70
2022-09-07T09:10:45.406Z,5.30
2022-09-07T09:16:00.556Z,3.75
2022-09-07T09:21:07.986Z,3.60
2022-09-07T09:26:15.622Z,4.30
2022-09-07T09:31:21.304Z,4.10
2022-09-07T09:36:31.139Z,4.18
2022-09-07T09:41:38.811Z,4.38
2022-09-07T09:47:29.208Z,4.47
2022-09-07T09:52:40.353Z,4.63
2022-09-07T10:08:54.951Z,5.10
2022-09-07T10:14:00.337Z,4.95
2022-09-07T10:19:03.725Z,4.75
2022-09-07T10:24:15.797Z,4.00
2022-09-07T10:29:28.655Z,4.65
2022-09-07T10:34:42.802Z,4.80
2022-09-07T10:40:00.752Z,4.45
2022-09-07T10:45:19.200Z,5.15
2022-09-07T10:50:30.818Z,4.97
2022-09-07T10:55:40.363Z,4.50
2022-09-07T11:01:00.254Z,4.38
2022-09-07T11:06:15.890Z,4.57
2022-09-07T11:12:00.705Z,4.85
2022-09-07T11:16:57.899Z,4.55
2022-09-07T11:22:07.428Z,5.15
2022-09-07T11:27:16.052Z,4.20
2022-09-07T11:32:23.955Z,5.00
2022-09-07T11:37:31.067Z,4.72
2022-09-07T11:42:43.145Z,4.90
2022-09-07T11:47:53.731Z,5.35
2022-09-07T11:53:03.142Z,5.25
2022-09-07T11:58:30.503Z,5.13
2022-09-07T12:03:56.498Z,4.38
2022-09-07T12:09:12.173Z,5.13
2022-09-07T12:14:26.755Z,5.68
2022-09-07T12:19:31.478Z,4.85
2022-09-07T12:24:43.616Z,5.72
2022-09-07T12:29:47.093Z,5.28
2022-09-07T12:34:53.983Z,5.45
2022-09-07T12:40:32.057Z,4.93
2022-09-07T12:45:50.669Z,5.80
2022-09-07T12:51:00.026Z,5.28
2022-09-07T12:56:23.352Z,6.15
2022-09-07T13:01:44.235Z,6.22
2022-09-07T13:07:03.776Z,5.15
2022-09-07T13:17:56.463Z,5.72
2022-09-07T13:23:28.464Z,5.53
2022-09-07T13:28:41.675Z,5.63
2022-09-07T13:33:54.409Z,5.03
2022-09-07T13:38:59.438Z,5.50
2022-09-07T13:44:04.485Z,5.47
2022-09-07T13:49:18.241Z,5.80
2022-09-07T13:54:31.020Z,6.13
2022-09-07T13:59:35.419Z,6.20
2022-09-07T14:04:44.371Z,5.93
2022-09-07T14:09:49.290Z,7.25
2022-09-07T14:15:09.288Z,5.93
2022-09-07T14:20:16.314Z,5.68
2022-09-07T14:25:22.824Z,5.63
2022-09-07T14:30:30.251Z,6.10
2022-09-07T14:35:35.176Z,5.53
2022-09-07T14:40:40.265Z,5.75
2022-09-07T14:45:43.461Z,7.60
2022-09-07T14:50:57.214Z,5.70
2022-09-07T14:56:20.871Z,4.93
2022-09-07T15:01:41.279Z,5.10
2022-09-07T15:07:02.164Z,5.45
2022-09-07T15:12:19.158Z,5.40
2022-09-07T15:22:47.936Z,5.07
2022-09-07T15:27:54.048Z,4.70
2022-09-07T15:32:57.791Z,4.97
2022-09-07T15:38:02.429Z,5.53
2022-09-07T15:43:20.087Z,5.68
2022-09-07T15:48:25.448Z,5.30
2022-09-07T15:58:54.709Z,4.63
2022-09-07T16:03:58.731Z,5.28
2022-09-07T16:09:02.439Z,5.25
2022-09-07T16:14:06.972Z,5.13
2022-09-07T16:19:13.785Z,5.32
2022-09-07T16:24:17.564Z,6.03
2022-09-07T16:29:22.210Z,5.45
2022-09-07T16:34:26.971Z,5.70
2022-09-07T16:39:31.378Z,5.43
2022-09-07T16:49:40.610Z,5.75
2022-09-07T16:54:46.050Z,5.07
2022-09-07T16:59:51.134Z,5.07
2022-09-07T17:04:54.813Z,5.32
2022-09-07T17:09:58.429Z,5.00
2022-09-07T17:15:03.435Z,5.82
2022-09-07T17:20:08.411Z,5.20
2022-09-07T17:25:14.083Z,5.15
2022-09-07T17:30:20.721Z,6.10
2022-09-07T17:35:24.296Z,5.95
2022-09-07T17:40:28.077Z,5.10
2022-09-07T17:45:34.376Z,5.07
2022-09-07T17:50:38.087Z,5.00
2022-09-07T17:55:44.806Z,4.75
2022-09-07T18:00:51.013Z,5.28
2022-09-07T18:05:56.080Z,5.47
2022-09-07T18:16:32.363Z,4.90
2022-09-07T18:21:37.656Z,5.25
2022-09-07T18:26:41.536Z,5.28
2022-09-07T18:31:46.657Z,4.93
2022-09-07T18:36:50.117Z,6.40
2022-09-07T18:41:54.379Z,5.82
2022-09-07T18:46:59.300Z,5.47
2022-09-07T18:57:26.425Z,6.23
2022-09-07T19:02:31.566Z,6.43
2022-09-07T19:07:34.747Z,5.97
2022-09-07T19:12:39.186Z,6.30
2022-09-07T19:17:45.948Z,6.95
2022-09-07T19:22:49.165Z,6.43
2022-09-07T19:27:52.369Z,7.25
2022-09-07T19:33:00.719Z,6.80
2022-09-07T19:38:06.580Z,6.25
2022-09-07T19:43:09.768Z,5.35
2022-09-07T19:48:14.555Z,5.53
2022-09-07T19:53:18.264Z,4.95
2022-09-07T19:58:21.731Z,5.43
2022-09-07T20:03:26.225Z,6.10
2022-09-07T20:08:29.799Z,4.82
2022-09-07T20:13:33.065Z,5.13
2022-09-07T20:18:39.018Z,5.00
2022-09-07T20:23:42.678Z,4.93
2022-09-07T20:28:46.361Z,4.40
2022-09-07T20:33:51.776Z,4.90
2022-09-07T20:38:56.055Z,4.53
2022-09-07T20:44:00.699Z,4.63
2022-09-07T20:49:05.354Z,4.15
2022-09-07T20:54:08.676Z,4.72
2022-09-07T20:59:12.295Z,3.92
2022-09-07T21:04:17.080Z,4.35
2022-09-07T21:09:20.372Z,4.68
2022-09-07T21:14:23.651Z,4.20
2022-09-07T21:19:28.186Z,4.72
2022-09-07T21:24:31.337Z,4.25
2022-09-07T21:29:34.604Z,4.25
2022-09-07T21:34:39.178Z,4.47
2022-09-07T21:39:42.498Z,4.22
2022-09-07T21:44:45.576Z,3.83
2022-09-07T21:49:50.342Z,4.03
2022-09-07T21:54:53.542Z,3.90
2022-09-07T21:59:56.701Z,4.03
2022-09-07T22:05:01.127Z,3.53
2022-09-07T22:10:04.810Z,3.87
2022-09-07T22:15:08.665Z,3.42
2022-09-07T22:20:13.350Z,3.80
2022-09-07T22:25:16.586Z,3.88
2022-09-07T22:30:20.124Z,3.63
2022-09-07T22:35:25.485Z,3.28
2022-09-07T22:40:28.685Z,3.65
2022-09-07T22:46:22.868Z,3.20
2022-09-07T22:56:32.574Z,3.40
2022-09-07T23:06:42.263Z,4.28
2022-09-07T23:11:46.925Z,4.40
2022-09-07T23:16:50.805Z,3.22
2022-09-07T23:21:55.498Z,3.45
2022-09-07T23:26:58.641Z,3.30
2022-09-07T23:32:02.106Z,3.47
2022-09-07T23:37:06.701Z,2.90
2022-09-07T23:42:09.749Z,2.80
2022-09-07T23:47:12.910Z,3.22
2022-09-07T23:52:17.378Z,3.30
2022-09-07T23:57:20.508Z,3.03
